sensor_id;sensor_type;location;lat;lon;timestamp;temperature;humidity
2723;DHT22;1369;53.216;10.396;2023-06-26T00:01:31;19.70;99.90
2723;DHT22;1369;53.216;10.396;2023-06-26T00:03:57;19.60;99.90
2723;DHT22;1369;53.216;10.396;2023-06-26T00:06:24;19.70;99.90
2723;DHT22;1369;53.216;10.396;2023-06-26T00:08:52;19.60;99.90
2723;DHT22;1369;53.216;10.396;2023-06-26T00:11:18;19.60;99.90
2723;DHT22;1369;53.216;10.396;2023-06-26T00:13:44;19.60;99.90
2723;DHT22;1369;53.216;10.396;2023-06-26T00:16:09;19.50;99.90
2723;DHT22;1369;53.216;10.396;2023-06-26T00:18:35;19.60;99.90
2723;DHT22;1369;53.216;10.396;2023-06-26T00:21:00;19.50;99.90
2723;DHT22;1369;53.216;10.396;2023-06-26T00:23:26;19.50;99.90
2723;DHT22;1369;53.216;10.396;2023-06-26T00:25:53;19.40;99.90
2723;DHT22;1369;53.216;10.396;2023-06-26T00:28:18;19.40;99.90
2723;DHT22;1369;53.216;10.396;2023-06-26T00:30:44;19.40;99.90
2723;DHT22;1369;53.216;10.396;2023-06-26T00:33:09;19.30;99.90
2723;DHT22;1369;53.216;10.396;2023-06-26T00:35:35;19.30;99.90
2723;DHT22;1369;53.216;10.396;2023-06-26T00:38:01;19.30;99.90
2723;DHT22;1369;53.216;10.396;2023-06-26T00:40:26;19.20;99.90
2723;DHT22;1369;53.216;10.396;2023-06-26T00:42:53;19.30;99.90
2723;DHT22;1369;53.216;10.396;2023-06-26T00:45:18;19.30;99.90
2723;DHT22;1369;53.216;10.396;2023-06-26T00:47:44;19.20;99.90
2723;DHT22;1369;53.216;10.396;2023-06-26T00:50:10;19.30;99.90
2723;DHT22;1369;53.216;10.396;2023-06-26T00:52:37;19.30;99.90
2723;DHT22;1369;53.216;10.396;2023-06-26T00:55:03;19.20;99.90
2723;DHT22;1369;53.216;10.396;2023-06-26T00:57:30;19.20;99.90
2723;DHT22;1369;53.216;10.396;2023-06-26T01:02:21;19.20;99.90
2723;DHT22;1369;53.216;10.396;2023-06-26T01:04:51;19.10;99.90
2723;DHT22;1369;53.216;10.396;2023-06-26T01:07:17;19.10;99.90
2723;DHT22;1369;53.216;10.396;2023-06-26T01:09:45;19.10;99.90
2723;DHT22;1369;53.216;10.396;2023-06-26T01:12:11;19.10;99.90
2723;DHT22;1369;53.216;10.396;2023-06-26T01:14:37;19.10;99.90
2723;DHT22;1369;53.216;10.396;2023-06-26T01:17:03;19.00;99.90
2723;DHT22;1369;53.216;10.396;2023-06-26T01:19:30;19.00;99.90
2723;DHT22;1369;53.216;10.396;2023-06-26T01:22:06;19.00;99.90
2723;DHT22;1369;53.216;10.396;2023-06-26T01:24:45;19.00;99.90
2723;DHT22;1369;53.216;10.396;2023-06-26T01:27:13;19.00;99.90
2723;DHT22;1369;53.216;10.396;2023-06-26T01:29:40;19.00;99.90
2723;DHT22;1369;53.216;10.396;2023-06-26T01:32:06;19.00;99.90
2723;DHT22;1369;53.216;10.396;2023-06-26T01:34:32;19.00;99.90
2723;DHT22;1369;53.216;10.396;2023-06-26T01:36:58;18.90;99.90
2723;DHT22;1369;53.216;10.396;2023-06-26T01:39:24;18.90;99.90
2723;DHT22;1369;53.216;10.396;2023-06-26T01:41:50;18.90;99.90
2723;DHT22;1369;53.216;10.396;2023-06-26T01:44:17;18.90;99.90
2723;DHT22;1369;53.216;10.396;2023-06-26T01:46:58;18.90;99.90
2723;DHT22;1369;53.216;10.396;2023-06-26T01:49:33;18.80;99.90
2723;DHT22;1369;53.216;10.396;2023-06-26T01:52:32;18.80;99.90
2723;DHT22;1369;53.216;10.396;2023-06-26T01:58:04;18.70;99.90
2723;DHT22;1369;53.216;10.396;2023-06-26T02:00:30;18.80;99.90
2723;DHT22;1369;53.216;10.396;2023-06-26T02:02:56;18.80;99.90
2723;DHT22;1369;53.216;10.396;2023-06-26T02:05:22;18.80;99.90
2723;DHT22;1369;53.216;10.396;2023-06-26T02:07:49;18.70;99.90
2723;DHT22;1369;53.216;10.396;2023-06-26T02:10:14;18.70;99.90
2723;DHT22;1369;53.216;10.396;2023-06-26T02:12:40;18.70;99.90
2723;DHT22;1369;53.216;10.396;2023-06-26T02:15:06;18.70;99.90
2723;DHT22;1369;53.216;10.396;2023-06-26T02:17:32;18.70;99.90
2723;DHT22;1369;53.216;10.396;2023-06-26T02:19:57;18.60;99.90
2723;DHT22;1369;53.216;10.396;2023-06-26T02:22:23;18.60;99.90
2723;DHT22;1369;53.216;10.396;2023-06-26T02:24:48;18.70;99.90
2723;DHT22;1369;53.216;10.396;2023-06-26T02:27:14;18.70;99.90
2723;DHT22;1369;53.216;10.396;2023-06-26T02:29:40;18.70;99.90
2723;DHT22;1369;53.216;10.396;2023-06-26T02:32:06;18.60;99.90
2723;DHT22;1369;53.216;10.396;2023-06-26T02:34:32;18.60;99.90
2723;DHT22;1369;53.216;10.396;2023-06-26T02:36:58;18.60;99.90
2723;DHT22;1369;53.216;10.396;2023-06-26T02:39:24;18.50;99.90
2723;DHT22;1369;53.216;10.396;2023-06-26T02:41:49;18.50;99.90
2723;DHT22;1369;53.216;10.396;2023-06-26T02:44:15;18.40;99.90
2723;DHT22;1369;53.216;10.396;2023-06-26T02:46:40;18.40;99.90
2723;DHT22;1369;53.216;10.396;2023-06-26T02:49:06;18.40;99.90
2723;DHT22;1369;53.216;10.396;2023-06-26T02:51:32;18.40;99.90
2723;DHT22;1369;53.216;10.396;2023-06-26T02:53:59;18.40;99.90
2723;DHT22;1369;53.216;10.396;2023-06-26T02:56:24;18.40;99.90
2723;DHT22;1369;53.216;10.396;2023-06-26T02:58:54;18.50;99.90
2723;DHT22;1369;53.216;10.396;2023-06-26T03:01:19;18.50;99.90
2723;DHT22;1369;53.216;10.396;2023-06-26T03:03:46;18.50;99.90
2723;DHT22;1369;53.216;10.396;2023-06-26T03:06:13;18.50;99.90
2723;DHT22;1369;53.216;10.396;2023-06-26T03:08:39;18.60;99.90
2723;DHT22;1369;53.216;10.396;2023-06-26T03:11:06;18.60;99.90
2723;DHT22;1369;53.216;10.396;2023-06-26T03:13:33;18.60;99.90
2723;DHT22;1369;53.216;10.396;2023-06-26T03:15:59;18.60;99.90
2723;DHT22;1369;53.216;10.396;2023-06-26T03:18:24;18.60;99.90
2723;DHT22;1369;53.216;10.396;2023-06-26T03:20:50;18.60;99.90
2723;DHT22;1369;53.216;10.396;2023-06-26T03:23:16;18.60;99.90
2723;DHT22;1369;53.216;10.396;2023-06-26T03:25:41;18.60;99.90
2723;DHT22;1369;53.216;10.396;2023-06-26T03:28:07;18.60;99.90
2723;DHT22;1369;53.216;10.396;2023-06-26T03:30:32;18.60;99.90
2723;DHT22;1369;53.216;10.396;2023-06-26T03:32:58;18.70;99.90
2723;DHT22;1369;53.216;10.396;2023-06-26T03:35:23;18.70;99.90
2723;DHT22;1369;53.216;10.396;2023-06-26T03:37:50;18.70;99.90
2723;DHT22;1369;53.216;10.396;2023-06-26T03:40:15;18.70;99.90
2723;DHT22;1369;53.216;10.396;2023-06-26T03:42:42;18.80;99.90
2723;DHT22;1369;53.216;10.396;2023-06-26T03:45:07;18.80;99.90
2723;DHT22;1369;53.216;10.396;2023-06-26T03:47:33;18.90;99.90
2723;DHT22;1369;53.216;10.396;2023-06-26T03:49:58;18.80;99.90
2723;DHT22;1369;53.216;10.396;2023-06-26T03:52:24;18.90;99.90
2723;DHT22;1369;53.216;10.396;2023-06-26T03:54:49;18.90;99.90
2723;DHT22;1369;53.216;10.396;2023-06-26T03:57:15;18.90;99.90
2723;DHT22;1369;53.216;10.396;2023-06-26T03:59:40;18.90;99.90
2723;DHT22;1369;53.216;10.396;2023-06-26T04:02:06;19.00;99.90
2723;DHT22;1369;53.216;10.396;2023-06-26T04:04:31;19.00;99.90
2723;DHT22;1369;53.216;10.396;2023-06-26T04:06:57;18.90;99.90
2723;DHT22;1369;53.216;10.396;2023-06-26T04:09:24;19.00;99.90
2723;DHT22;1369;53.216;10.396;2023-06-26T04:11:50;19.00;99.90
2723;DHT22;1369;53.216;10.396;2023-06-26T04:14:16;19.00;99.90
2723;DHT22;1369;53.216;10.396;2023-06-26T04:16:41;19.00;99.90
2723;DHT22;1369;53.216;10.396;2023-06-26T04:19:07;19.10;99.90
2723;DHT22;1369;53.216;10.396;2023-06-26T04:21:33;19.10;99.90
2723;DHT22;1369;53.216;10.396;2023-06-26T04:23:58;19.20;99.90
2723;DHT22;1369;53.216;10.396;2023-06-26T04:26:24;19.20;99.90
2723;DHT22;1369;53.216;10.396;2023-06-26T04:28:49;19.30;99.90
2723;DHT22;1369;53.216;10.396;2023-06-26T04:31:15;19.30;99.90
2723;DHT22;1369;53.216;10.396;2023-06-26T04:33:40;19.40;99.90
2723;DHT22;1369;53.216;10.396;2023-06-26T04:36:06;19.40;99.90
2723;DHT22;1369;53.216;10.396;2023-06-26T04:38:35;19.50;99.90
2723;DHT22;1369;53.216;10.396;2023-06-26T04:41:01;19.50;99.90
2723;DHT22;1369;53.216;10.396;2023-06-26T04:43:26;19.50;99.90
2723;DHT22;1369;53.216;10.396;2023-06-26T04:45:52;19.60;99.90
2723;DHT22;1369;53.216;10.396;2023-06-26T04:48:17;19.60;99.90
2723;DHT22;1369;53.216;10.396;2023-06-26T04:50:43;19.70;99.90
2723;DHT22;1369;53.216;10.396;2023-06-26T04:53:08;19.80;99.90
2723;DHT22;1369;53.216;10.396;2023-06-26T04:55:35;19.80;99.90
2723;DHT22;1369;53.216;10.396;2023-06-26T04:58:00;19.80;99.90
2723;DHT22;1369;53.216;10.396;2023-06-26T05:00:25;19.90;99.90
2723;DHT22;1369;53.216;10.396;2023-06-26T05:02:51;19.90;99.90
2723;DHT22;1369;53.216;10.396;2023-06-26T05:05:27;20.00;99.90
2723;DHT22;1369;53.216;10.396;2023-06-26T05:07:56;20.00;99.90
2723;DHT22;1369;53.216;10.396;2023-06-26T05:10:22;20.10;99.90
2723;DHT22;1369;53.216;10.396;2023-06-26T05:12:48;20.10;99.90
2723;DHT22;1369;53.216;10.396;2023-06-26T05:15:13;20.20;99.90
2723;DHT22;1369;53.216;10.396;2023-06-26T05:17:39;20.20;99.90
2723;DHT22;1369;53.216;10.396;2023-06-26T05:20:05;20.20;99.90
2723;DHT22;1369;53.216;10.396;2023-06-26T05:22:32;20.20;99.90
2723;DHT22;1369;53.216;10.396;2023-06-26T05:24:59;20.20;99.90
2723;DHT22;1369;53.216;10.396;2023-06-26T05:27:26;20.30;99.90
2723;DHT22;1369;53.216;10.396;2023-06-26T05:29:52;20.40;99.90
2723;DHT22;1369;53.216;10.396;2023-06-26T05:32:17;20.40;99.90
2723;DHT22;1369;53.216;10.396;2023-06-26T05:34:49;20.50;99.90
2723;DHT22;1369;53.216;10.396;2023-06-26T05:37:23;20.60;99.90
2723;DHT22;1369;53.216;10.396;2023-06-26T05:39:50;20.60;99.90
2723;DHT22;1369;53.216;10.396;2023-06-26T05:42:16;20.70;99.90
2723;DHT22;1369;53.216;10.396;2023-06-26T05:44:41;20.70;99.90
2723;DHT22;1369;53.216;10.396;2023-06-26T05:47:07;20.80;99.90
2723;DHT22;1369;53.216;10.396;2023-06-26T05:49:33;20.90;99.90
2723;DHT22;1369;53.216;10.396;2023-06-26T05:51:59;20.90;99.90
2723;DHT22;1369;53.216;10.396;2023-06-26T05:54:25;20.90;99.90
2723;DHT22;1369;53.216;10.396;2023-06-26T05:56:54;21.00;99.90
2723;DHT22;1369;53.216;10.396;2023-06-26T05:59:22;21.10;99.90
2723;DHT22;1369;53.216;10.396;2023-06-26T06:01:47;21.30;99.90
2723;DHT22;1369;53.216;10.396;2023-06-26T06:04:13;21.30;99.90
2723;DHT22;1369;53.216;10.396;2023-06-26T06:06:38;21.30;99.90
2723;DHT22;1369;53.216;10.396;2023-06-26T06:09:04;21.40;99.90
2723;DHT22;1369;53.216;10.396;2023-06-26T06:11:29;21.50;99.90
2723;DHT22;1369;53.216;10.396;2023-06-26T06:13:55;21.50;99.90
2723;DHT22;1369;53.216;10.396;2023-06-26T06:16:20;21.50;99.90
2723;DHT22;1369;53.216;10.396;2023-06-26T06:18:46;21.50;99.90
2723;DHT22;1369;53.216;10.396;2023-06-26T06:21:11;21.60;99.90
2723;DHT22;1369;53.216;10.396;2023-06-26T06:23:37;21.60;99.90
2723;DHT22;1369;53.216;10.396;2023-06-26T06:26:03;21.70;99.90
2723;DHT22;1369;53.216;10.396;2023-06-26T06:28:29;21.80;99.90
2723;DHT22;1369;53.216;10.396;2023-06-26T06:30:54;21.80;99.90
2723;DHT22;1369;53.216;10.396;2023-06-26T06:33:20;21.90;99.90
2723;DHT22;1369;53.216;10.396;2023-06-26T06:35:45;22.00;99.90
2723;DHT22;1369;53.216;10.396;2023-06-26T06:38:11;22.10;99.90
2723;DHT22;1369;53.216;10.396;2023-06-26T06:40:36;22.20;99.90
2723;DHT22;1369;53.216;10.396;2023-06-26T06:43:01;22.20;99.90
2723;DHT22;1369;53.216;10.396;2023-06-26T06:45:27;22.30;99.90
2723;DHT22;1369;53.216;10.396;2023-06-26T06:47:53;22.40;99.90
2723;DHT22;1369;53.216;10.396;2023-06-26T06:50:18;22.40;99.90
2723;DHT22;1369;53.216;10.396;2023-06-26T06:52:44;22.60;99.90
2723;DHT22;1369;53.216;10.396;2023-06-26T06:55:09;22.80;99.90
2723;DHT22;1369;53.216;10.396;2023-06-26T06:57:39;22.90;99.90
2723;DHT22;1369;53.216;10.396;2023-06-26T07:00:07;22.90;99.90
2723;DHT22;1369;53.216;10.396;2023-06-26T07:02:36;23.10;99.90
2723;DHT22;1369;53.216;10.396;2023-06-26T07:05:02;23.20;99.90
2723;DHT22;1369;53.216;10.396;2023-06-26T07:07:30;23.50;99.90
2723;DHT22;1369;53.216;10.396;2023-06-26T07:10:00;24.10;99.90
2723;DHT22;1369;53.216;10.396;2023-06-26T07:12:26;25.70;99.90
2723;DHT22;1369;53.216;10.396;2023-06-26T07:14:52;28.20;99.90
2723;DHT22;1369;53.216;10.396;2023-06-26T07:17:19;30.50;99.90
2723;DHT22;1369;53.216;10.396;2023-06-26T07:19:44;32.50;99.90
2723;DHT22;1369;53.216;10.396;2023-06-26T07:22:10;34.20;99.90
2723;DHT22;1369;53.216;10.396;2023-06-26T07:24:36;35.20;99.90
2723;DHT22;1369;53.216;10.396;2023-06-26T07:27:01;36.40;99.90
2723;DHT22;1369;53.216;10.396;2023-06-26T07:29:27;37.40;99.90
2723;DHT22;1369;53.216;10.396;2023-06-26T07:31:53;38.00;99.90
2723;DHT22;1369;53.216;10.396;2023-06-26T07:34:18;38.20;99.90
2723;DHT22;1369;53.216;10.396;2023-06-26T07:36:43;38.90;99.90
2723;DHT22;1369;53.216;10.396;2023-06-26T07:39:09;39.50;98.50
2723;DHT22;1369;53.216;10.396;2023-06-26T07:41:34;39.40;95.50
2723;DHT22;1369;53.216;10.396;2023-06-26T07:44:00;39.10;94.30
2723;DHT22;1369;53.216;10.396;2023-06-26T07:46:25;38.80;94.20
2723;DHT22;1369;53.216;10.396;2023-06-26T07:48:51;38.50;94.00
2723;DHT22;1369;53.216;10.396;2023-06-26T07:51:16;38.60;93.80
2723;DHT22;1369;53.216;10.396;2023-06-26T07:53:42;39.20;94.20
2723;DHT22;1369;53.216;10.396;2023-06-26T07:56:07;39.60;92.90
2723;DHT22;1369;53.216;10.396;2023-06-26T07:58:33;39.50;90.70
2723;DHT22;1369;53.216;10.396;2023-06-26T08:00:58;39.50;91.00
2723;DHT22;1369;53.216;10.396;2023-06-26T08:03:24;39.20;89.80
2723;DHT22;1369;53.216;10.396;2023-06-26T08:05:49;38.50;88.40
2723;DHT22;1369;53.216;10.396;2023-06-26T08:08:15;37.40;89.40
2723;DHT22;1369;53.216;10.396;2023-06-26T08:10:40;35.70;91.20
2723;DHT22;1369;53.216;10.396;2023-06-26T08:13:06;35.90;93.80
2723;DHT22;1369;53.216;10.396;2023-06-26T08:15:31;36.70;93.30
2723;DHT22;1369;53.216;10.396;2023-06-26T08:17:57;37.80;93.70
2723;DHT22;1369;53.216;10.396;2023-06-26T08:20:22;37.90;90.90
2723;DHT22;1369;53.216;10.396;2023-06-26T08:22:48;38.80;92.40
2723;DHT22;1369;53.216;10.396;2023-06-26T08:25:16;39.40;91.20
2723;DHT22;1369;53.216;10.396;2023-06-26T08:27:42;39.90;90.20
2723;DHT22;1369;53.216;10.396;2023-06-26T08:30:08;40.10;88.10
2723;DHT22;1369;53.216;10.396;2023-06-26T08:32:33;39.90;81.40
2723;DHT22;1369;53.216;10.396;2023-06-26T08:34:59;39.90;82.10
2723;DHT22;1369;53.216;10.396;2023-06-26T08:37:24;39.70;78.50
2723;DHT22;1369;53.216;10.396;2023-06-26T08:39:50;39.80;79.30
2723;DHT22;1369;53.216;10.396;2023-06-26T08:42:16;40.10;84.10
2723;DHT22;1369;53.216;10.396;2023-06-26T08:44:41;40.30;80.10
2723;DHT22;1369;53.216;10.396;2023-06-26T08:47:07;39.60;80.10
2723;DHT22;1369;53.216;10.396;2023-06-26T08:50:01;38.10;79.00
2723;DHT22;1369;53.216;10.396;2023-06-26T08:52:33;37.30;83.00
2723;DHT22;1369;53.216;10.396;2023-06-26T08:55:02;36.20;85.40
2723;DHT22;1369;53.216;10.396;2023-06-26T08:57:28;35.10;86.60
2723;DHT22;1369;53.216;10.396;2023-06-26T08:59:55;34.30;87.50
2723;DHT22;1369;53.216;10.396;2023-06-26T09:02:21;33.60;89.00
2723;DHT22;1369;53.216;10.396;2023-06-26T09:04:47;34.00;91.50
2723;DHT22;1369;53.216;10.396;2023-06-26T09:07:14;34.40;91.10
2723;DHT22;1369;53.216;10.396;2023-06-26T09:09:40;34.70;90.60
2723;DHT22;1369;53.216;10.396;2023-06-26T09:12:06;34.90;91.40
2723;DHT22;1369;53.216;10.396;2023-06-26T09:14:31;34.90;90.40
2723;DHT22;1369;53.216;10.396;2023-06-26T09:16:57;34.50;90.80
2723;DHT22;1369;53.216;10.396;2023-06-26T09:19:22;34.40;91.50
2723;DHT22;1369;53.216;10.396;2023-06-26T09:21:49;34.50;92.40
2723;DHT22;1369;53.216;10.396;2023-06-26T09:24:16;34.50;92.10
2723;DHT22;1369;53.216;10.396;2023-06-26T09:26:42;34.10;91.90
2723;DHT22;1369;53.216;10.396;2023-06-26T09:29:09;33.80;92.80
2723;DHT22;1369;53.216;10.396;2023-06-26T09:31:38;33.40;92.00
2723;DHT22;1369;53.216;10.396;2023-06-26T09:34:05;33.00;92.10
2723;DHT22;1369;53.216;10.396;2023-06-26T09:36:31;32.90;93.40
2723;DHT22;1369;53.216;10.396;2023-06-26T09:39:05;33.10;94.20
2723;DHT22;1369;53.216;10.396;2023-06-26T09:41:36;33.30;95.30
2723;DHT22;1369;53.216;10.396;2023-06-26T09:44:04;33.40;94.50
2723;DHT22;1369;53.216;10.396;2023-06-26T09:46:30;33.50;94.60
2723;DHT22;1369;53.216;10.396;2023-06-26T09:51:31;33.40;95.10
2723;DHT22;1369;53.216;10.396;2023-06-26T09:53:57;33.50;95.50
2723;DHT22;1369;53.216;10.396;2023-06-26T09:56:23;33.60;95.90
2723;DHT22;1369;53.216;10.396;2023-06-26T09:58:49;33.60;94.20
2723;DHT22;1369;53.216;10.396;2023-06-26T10:01:15;33.40;94.60
2723;DHT22;1369;53.216;10.396;2023-06-26T10:03:40;33.30;94.80
2723;DHT22;1369;53.216;10.396;2023-06-26T10:06:08;33.00;94.70
2723;DHT22;1369;53.216;10.396;2023-06-26T10:08:34;32.80;95.00
2723;DHT22;1369;53.216;10.396;2023-06-26T10:11:02;32.60;95.20
2723;DHT22;1369;53.216;10.396;2023-06-26T10:13:31;32.80;95.70
2723;DHT22;1369;53.216;10.396;2023-06-26T10:16:00;32.90;95.70
2723;DHT22;1369;53.216;10.396;2023-06-26T10:18:27;32.80;95.90
2723;DHT22;1369;53.216;10.396;2023-06-26T10:20:56;32.80;95.60
2723;DHT22;1369;53.216;10.396;2023-06-26T10:23:23;32.60;95.10
2723;DHT22;1369;53.216;10.396;2023-06-26T10:25:52;32.70;95.40
2723;DHT22;1369;53.216;10.396;2023-06-26T10:28:21;32.60;95.00
2723;DHT22;1369;53.216;10.396;2023-06-26T10:30:48;32.30;95.40
2723;DHT22;1369;53.216;10.396;2023-06-26T10:33:16;32.00;95.90
2723;DHT22;1369;53.216;10.396;2023-06-26T10:35:45;31.80;96.30
2723;DHT22;1369;53.216;10.396;2023-06-26T10:38:11;31.40;95.70
2723;DHT22;1369;53.216;10.396;2023-06-26T10:43:08;30.30;97.00
2723;DHT22;1369;53.216;10.396;2023-06-26T10:45:34;29.80;98.10
2723;DHT22;1369;53.216;10.396;2023-06-26T10:48:00;29.30;98.60
2723;DHT22;1369;53.216;10.396;2023-06-26T10:50:28;28.80;99.10
2723;DHT22;1369;53.216;10.396;2023-06-26T10:53:15;28.40;99.90
2723;DHT22;1369;53.216;10.396;2023-06-26T10:55:59;27.80;99.90
2723;DHT22;1369;53.216;10.396;2023-06-26T11:06:24;25.20;99.90
2723;DHT22;1369;53.216;10.396;2023-06-26T11:08:52;24.70;99.90
2723;DHT22;1369;53.216;10.396;2023-06-26T11:11:19;24.40;99.90
2723;DHT22;1369;53.216;10.396;2023-06-26T11:13:46;24.20;99.90
2723;DHT22;1369;53.216;10.396;2023-06-26T11:16:15;24.10;99.90
2723;DHT22;1369;53.216;10.396;2023-06-26T11:18:41;23.90;99.90
2723;DHT22;1369;53.216;10.396;2023-06-26T11:21:11;23.80;99.90
2723;DHT22;1369;53.216;10.396;2023-06-26T11:23:40;23.80;99.90
2723;DHT22;1369;53.216;10.396;2023-06-26T11:26:19;23.70;99.90
2723;DHT22;1369;53.216;10.396;2023-06-26T11:28:54;23.60;99.90
2723;DHT22;1369;53.216;10.396;2023-06-26T11:31:35;23.60;99.90
2723;DHT22;1369;53.216;10.396;2023-06-26T11:34:07;23.60;99.90
2723;DHT22;1369;53.216;10.396;2023-06-26T11:36:34;23.80;99.90
2723;DHT22;1369;53.216;10.396;2023-06-26T11:39:04;24.00;99.90
2723;DHT22;1369;53.216;10.396;2023-06-26T11:41:35;24.40;99.90
2723;DHT22;1369;53.216;10.396;2023-06-26T11:44:02;24.80;99.90
2723;DHT22;1369;53.216;10.396;2023-06-26T11:46:29;25.00;99.90
2723;DHT22;1369;53.216;10.396;2023-06-26T11:48:55;25.00;99.90
2723;DHT22;1369;53.216;10.396;2023-06-26T11:51:23;25.10;99.90
2723;DHT22;1369;53.216;10.396;2023-06-26T11:53:50;25.10;99.90
2723;DHT22;1369;53.216;10.396;2023-06-26T11:56:16;25.20;99.90
2723;DHT22;1369;53.216;10.396;2023-06-26T11:59:06;25.30;99.90
2723;DHT22;1369;53.216;10.396;2023-06-26T12:01:34;25.30;99.90
2723;DHT22;1369;53.216;10.396;2023-06-26T12:04:04;25.40;99.90
2723;DHT22;1369;53.216;10.396;2023-06-26T12:06:32;25.40;99.90
2723;DHT22;1369;53.216;10.396;2023-06-26T12:09:00;25.20;99.90
2723;DHT22;1369;53.216;10.396;2023-06-26T12:11:26;25.30;99.90
2723;DHT22;1369;53.216;10.396;2023-06-26T12:13:54;25.30;99.90
2723;DHT22;1369;53.216;10.396;2023-06-26T12:16:19;25.60;99.90
2723;DHT22;1369;53.216;10.396;2023-06-26T12:18:45;25.70;99.90
2723;DHT22;1369;53.216;10.396;2023-06-26T12:24:03;25.90;99.90
2723;DHT22;1369;53.216;10.396;2023-06-26T12:26:29;25.70;99.90
2723;DHT22;1369;53.216;10.396;2023-06-26T12:29:07;25.60;99.90
2723;DHT22;1369;53.216;10.396;2023-06-26T12:31:33;25.90;99.90
2723;DHT22;1369;53.216;10.396;2023-06-26T12:34:00;26.20;99.90
2723;DHT22;1369;53.216;10.396;2023-06-26T12:36:25;26.30;99.90
2723;DHT22;1369;53.216;10.396;2023-06-26T12:38:53;26.30;99.90
2723;DHT22;1369;53.216;10.396;2023-06-26T12:41:19;26.50;99.90
2723;DHT22;1369;53.216;10.396;2023-06-26T12:43:46;26.40;99.90
2723;DHT22;1369;53.216;10.396;2023-06-26T12:46:12;26.20;99.90
2723;DHT22;1369;53.216;10.396;2023-06-26T12:48:41;26.20;99.90
2723;DHT22;1369;53.216;10.396;2023-06-26T12:51:16;26.40;99.90
2723;DHT22;1369;53.216;10.396;2023-06-26T12:53:42;26.30;99.90
2723;DHT22;1369;53.216;10.396;2023-06-26T12:56:09;26.20;99.90
2723;DHT22;1369;53.216;10.396;2023-06-26T12:58:35;26.20;99.90
2723;DHT22;1369;53.216;10.396;2023-06-26T13:01:03;26.20;99.90
2723;DHT22;1369;53.216;10.396;2023-06-26T13:03:29;26.20;99.90
2723;DHT22;1369;53.216;10.396;2023-06-26T13:05:54;26.20;99.90
2723;DHT22;1369;53.216;10.396;2023-06-26T13:08:20;26.20;99.90
2723;DHT22;1369;53.216;10.396;2023-06-26T13:10:45;26.40;99.90
2723;DHT22;1369;53.216;10.396;2023-06-26T13:13:11;26.50;99.90
2723;DHT22;1369;53.216;10.396;2023-06-26T13:15:37;26.40;99.90
2723;DHT22;1369;53.216;10.396;2023-06-26T13:18:02;26.40;99.90
2723;DHT22;1369;53.216;10.396;2023-06-26T13:20:29;26.50;99.90
2723;DHT22;1369;53.216;10.396;2023-06-26T13:22:55;26.50;99.90
2723;DHT22;1369;53.216;10.396;2023-06-26T13:25:21;26.60;99.90
2723;DHT22;1369;53.216;10.396;2023-06-26T13:27:48;26.50;99.90
2723;DHT22;1369;53.216;10.396;2023-06-26T13:30:14;26.50;99.90
2723;DHT22;1369;53.216;10.396;2023-06-26T13:32:39;26.40;99.90
2723;DHT22;1369;53.216;10.396;2023-06-26T13:35:05;26.40;99.90
2723;DHT22;1369;53.216;10.396;2023-06-26T13:37:31;26.60;99.90
2723;DHT22;1369;53.216;10.396;2023-06-26T13:39:57;26.50;99.90
2723;DHT22;1369;53.216;10.396;2023-06-26T13:42:24;26.50;99.90
2723;DHT22;1369;53.216;10.396;2023-06-26T13:44:50;26.60;99.90
2723;DHT22;1369;53.216;10.396;2023-06-26T13:47:16;26.70;99.90
2723;DHT22;1369;53.216;10.396;2023-06-26T13:49:41;27.00;99.90
2723;DHT22;1369;53.216;10.396;2023-06-26T13:52:07;27.00;99.90
2723;DHT22;1369;53.216;10.396;2023-06-26T13:54:35;27.10;99.90
2723;DHT22;1369;53.216;10.396;2023-06-26T13:57:05;27.00;99.90
2723;DHT22;1369;53.216;10.396;2023-06-26T13:59:31;26.90;99.90
2723;DHT22;1369;53.216;10.396;2023-06-26T14:01:56;26.90;99.90
2723;DHT22;1369;53.216;10.396;2023-06-26T14:04:22;26.90;99.90
2723;DHT22;1369;53.216;10.396;2023-06-26T14:06:48;27.00;99.90
2723;DHT22;1369;53.216;10.396;2023-06-26T14:09:13;27.10;99.90
2723;DHT22;1369;53.216;10.396;2023-06-26T14:11:39;27.10;99.90
2723;DHT22;1369;53.216;10.396;2023-06-26T14:14:04;27.10;99.90
2723;DHT22;1369;53.216;10.396;2023-06-26T14:16:30;27.20;99.90
2723;DHT22;1369;53.216;10.396;2023-06-26T14:18:57;27.00;99.90
2723;DHT22;1369;53.216;10.396;2023-06-26T14:21:22;26.80;99.90
2723;DHT22;1369;53.216;10.396;2023-06-26T14:23:47;26.60;99.90
2723;DHT22;1369;53.216;10.396;2023-06-26T14:26:13;26.50;99.90
2723;DHT22;1369;53.216;10.396;2023-06-26T14:28:39;26.30;99.90
2723;DHT22;1369;53.216;10.396;2023-06-26T14:31:05;26.00;99.90
2723;DHT22;1369;53.216;10.396;2023-06-26T14:33:30;25.80;99.90
2723;DHT22;1369;53.216;10.396;2023-06-26T14:35:56;25.80;99.90
2723;DHT22;1369;53.216;10.396;2023-06-26T14:38:21;25.80;99.90
2723;DHT22;1369;53.216;10.396;2023-06-26T14:40:47;25.90;99.90
2723;DHT22;1369;53.216;10.396;2023-06-26T14:43:12;26.10;99.90
2723;DHT22;1369;53.216;10.396;2023-06-26T14:45:38;26.30;99.90
2723;DHT22;1369;53.216;10.396;2023-06-26T14:48:03;26.60;99.90
2723;DHT22;1369;53.216;10.396;2023-06-26T14:50:29;26.70;99.90
2723;DHT22;1369;53.216;10.396;2023-06-26T14:52:54;26.80;99.90
2723;DHT22;1369;53.216;10.396;2023-06-26T14:55:20;26.80;99.90
2723;DHT22;1369;53.216;10.396;2023-06-26T14:57:45;26.70;99.90
2723;DHT22;1369;53.216;10.396;2023-06-26T15:00:11;26.70;99.90
2723;DHT22;1369;53.216;10.396;2023-06-26T15:02:37;26.60;99.90
2723;DHT22;1369;53.216;10.396;2023-06-26T15:05:03;26.70;99.90
2723;DHT22;1369;53.216;10.396;2023-06-26T15:07:28;26.60;99.90
2723;DHT22;1369;53.216;10.396;2023-06-26T15:09:54;26.60;99.90
2723;DHT22;1369;53.216;10.396;2023-06-26T15:12:19;26.50;99.90
2723;DHT22;1369;53.216;10.396;2023-06-26T15:14:45;26.30;99.90
2723;DHT22;1369;53.216;10.396;2023-06-26T15:17:11;26.20;99.90
2723;DHT22;1369;53.216;10.396;2023-06-26T15:19:37;26.00;99.90
2723;DHT22;1369;53.216;10.396;2023-06-26T15:22:03;25.80;99.90
2723;DHT22;1369;53.216;10.396;2023-06-26T15:24:29;25.60;99.90
2723;DHT22;1369;53.216;10.396;2023-06-26T15:26:55;25.60;99.90
2723;DHT22;1369;53.216;10.396;2023-06-26T15:29:20;25.70;99.90
2723;DHT22;1369;53.216;10.396;2023-06-26T15:31:46;25.60;99.90
2723;DHT22;1369;53.216;10.396;2023-06-26T15:34:12;25.60;99.90
2723;DHT22;1369;53.216;10.396;2023-06-26T15:36:38;25.60;99.90
2723;DHT22;1369;53.216;10.396;2023-06-26T15:39:04;25.60;99.90
2723;DHT22;1369;53.216;10.396;2023-06-26T15:41:29;25.60;99.90
2723;DHT22;1369;53.216;10.396;2023-06-26T15:43:55;25.60;99.90
2723;DHT22;1369;53.216;10.396;2023-06-26T15:46:20;25.50;99.90
2723;DHT22;1369;53.216;10.396;2023-06-26T15:48:46;25.40;99.90
2723;DHT22;1369;53.216;10.396;2023-06-26T15:51:13;25.20;99.90
2723;DHT22;1369;53.216;10.396;2023-06-26T15:53:40;25.00;99.90
2723;DHT22;1369;53.216;10.396;2023-06-26T15:56:10;24.80;99.90
2723;DHT22;1369;53.216;10.396;2023-06-26T15:58:36;24.70;99.90
2723;DHT22;1369;53.216;10.396;2023-06-26T16:01:07;24.70;99.90
2723;DHT22;1369;53.216;10.396;2023-06-26T16:03:32;24.70;99.90